KHMT/HMT METAR and TAF weather

Enter ICAO airport designator
Station Type Date Time Source
KHMT METAR 2022/06/30 14:15 UTC NOAA

KHMT 301415Z AUTO 00000KT 7SM HZ CLR 21/11 A3005 RMK AO2 T02130107


Station Type Date Time Source
KHMT Decoded METAR 2022/06/30 14:15 UTC NOAA

Station name not available
Jun 30, 2022 - 10:15 AM EDT / 2022.06.30 1415 UTC
Wind: Calm:0
Visibility: 7 mile(s):0
Sky conditions: clear
Weather: haze
Temperature: 70.3 F (21.3 C)
Dew Point: 51.3 F (10.7 C)
Relative Humidity: 50%
Pressure (altimeter): 30.05 in. Hg (1017 hPa)
ob: KHMT 301415Z AUTO 00000KT 7SM HZ CLR 21/11 A3005 RMK AO2 T02130107
cycle: 14

Station Type Date Time Source
KHMT TAF UTC NOAA

Error!

Example: see airport list